createdAt,value
2017-10-02T00:02:07.470Z,101888.63
2017-10-02T00:04:35.983Z,101880.09
2017-10-02T00:07:04.429Z,101864.33
2017-10-02T00:09:33.758Z,101854.13
2017-10-02T00:12:02.219Z,101851.58
2017-10-02T00:14:30.690Z,101850.82
2017-10-02T00:16:59.930Z,101846.13
2017-10-02T00:19:28.393Z,101853.64
2017-10-02T00:21:56.898Z,101841.66
2017-10-02T00:24:25.478Z,101840.48
2017-10-02T00:26:53.926Z,101824.55
2017-10-02T00:29:23.256Z,101815.59
2017-10-02T00:31:51.744Z,101803.66
2017-10-02T00:34:20.219Z,101799.77
2017-10-02T00:36:48.693Z,101791.67
2017-10-02T00:39:17.141Z,101790.88
2017-10-02T00:41:46.390Z,101794.77
2017-10-02T00:44:14.873Z,101789.63
2017-10-02T00:46:43.341Z,101786.60
2017-10-02T00:49:11.780Z,101776.30
2017-10-02T00:51:40.311Z,101776.41
2017-10-02T00:54:08.753Z,101770.86
2017-10-02T00:56:37.981Z,101758.33
2017-10-02T00:59:06.585Z,101755.35
2017-10-02T01:01:35.049Z,101750.23
2017-10-02T01:04:03.497Z,101744.30
2017-10-02T01:06:32.734Z,101743.00
2017-10-02T01:09:01.202Z,101739.17
2017-10-02T01:11:29.714Z,101737.94
2017-10-02T01:13:58.165Z,101730.27
2017-10-02T01:16:26.653Z,101732.49
2017-10-02T01:18:55.154Z,101728.23
2017-10-02T01:21:23.597Z,101715.75
2017-10-02T01:23:52.814Z,101715.76
2017-10-02T01:26:21.262Z,101708.47
2017-10-02T01:28:50.618Z,101711.05
2017-10-02T01:31:19.066Z,101714.45
2017-10-02T01:33:48.401Z,101704.43
2017-10-02T01:36:16.841Z,101706.95
2017-10-02T01:38:46.185Z,101697.84
2017-10-02T01:41:14.661Z,101694.32
2017-10-02T01:43:43.125Z,101686.50
2017-10-02T01:46:11.620Z,101688.66
2017-10-02T01:48:40.086Z,101683.91
2017-10-02T01:51:08.595Z,101680.08
2017-10-02T01:53:37.178Z,101687.03
2017-10-02T01:56:05.626Z,101683.09
2017-10-02T01:58:34.837Z,101681.42
2017-10-02T02:01:03.342Z,101675.39
2017-10-02T02:03:31.818Z,101678.04
2017-10-02T02:06:00.284Z,101675.92
2017-10-02T02:08:28.751Z,101677.23
2017-10-02T02:10:57.981Z,101675.56
2017-10-02T02:13:26.469Z,101667.41
2017-10-02T02:15:54.933Z,101667.41
2017-10-02T02:18:23.377Z,101675.66
2017-10-02T02:20:52.617Z,101682.62
2017-10-02T02:23:21.065Z,101689.92
2017-10-02T02:25:50.417Z,101684.30
2017-10-02T02:28:18.857Z,101680.91
2017-10-02T02:30:48.199Z,101678.80
2017-10-02T02:33:16.680Z,101671.94
2017-10-02T02:35:45.146Z,101671.95
2017-10-02T02:38:13.621Z,101670.66
2017-10-02T02:40:42.109Z,101664.67
2017-10-02T02:43:10.548Z,101666.88
2017-10-02T02:45:39.001Z,101666.01
2017-10-02T02:48:07.465Z,101658.73
2017-10-02T02:50:35.948Z,101657.48
2017-10-02T02:53:04.434Z,101644.55
2017-10-02T02:55:32.887Z,101648.00
2017-10-02T02:58:01.349Z,101653.19
2017-10-02T03:00:30.566Z,101646.28
2017-10-02T03:02:59.796Z,101641.14
2017-10-02T03:05:28.237Z,101637.70
2017-10-02T03:07:57.470Z,101632.53
2017-10-02T03:10:25.958Z,101629.55
2017-10-02T03:12:54.521Z,101627.42
2017-10-02T03:15:22.957Z,101619.20
2017-10-02T03:17:51.509Z,101623.56
2017-10-02T03:20:19.953Z,101611.89
2017-10-02T03:22:49.168Z,101608.02
2017-10-02T03:25:17.629Z,101594.21
2017-10-02T03:27:46.864Z,101586.44
2017-10-02T03:30:15.330Z,101581.72
2017-10-02T03:32:43.765Z,101575.22
2017-10-02T03:35:12.234Z,101562.33
2017-10-02T03:37:40.673Z,101550.68
2017-10-02T03:40:09.178Z,101543.73
2017-10-02T03:42:37.616Z,101539.41
2017-10-02T03:45:06.952Z,101534.23
2017-10-02T03:47:35.388Z,101532.11
2017-10-02T03:50:03.849Z,101528.18
2017-10-02T03:52:32.289Z,101520.41
2017-10-02T03:55:00.749Z,101532.81
2017-10-02T03:57:29.986Z,101524.12
2017-10-02T03:59:58.453Z,101521.88
2017-10-02T04:02:26.902Z,101512.33
2017-10-02T04:04:56.249Z,101498.95
2017-10-02T04:07:24.687Z,101487.31
2017-10-02T04:09:53.985Z,101485.58
2017-10-02T04:12:23.204Z,101475.22
2017-10-02T04:14:51.664Z,101472.58
2017-10-02T04:17:20.909Z,101467.83
2017-10-02T04:19:49.381Z,101469.13
2017-10-02T04:22:17.824Z,101470.85
2017-10-02T04:24:46.274Z,101459.14
2017-10-02T04:27:14.751Z,101454.02
2017-10-02T04:29:43.217Z,101464.31
2017-10-02T04:32:11.680Z,101460.48
2017-10-02T04:34:40.116Z,101467.81
2017-10-02T04:37:08.657Z,101465.66
2017-10-02T04:39:37.140Z,101470.73
2017-10-02T04:42:05.608Z,101471.10
2017-10-02T04:44:34.048Z,101473.25
2017-10-02T04:47:02.522Z,101463.38
2017-10-02T04:49:30.965Z,101452.16
2017-10-02T04:51:59.425Z,101438.79
2017-10-02T04:54:28.641Z,101424.12
2017-10-02T04:56:57.129Z,101424.55
2017-10-02T04:59:25.581Z,101421.95
2017-10-02T05:01:54.817Z,101415.42
2017-10-02T05:04:23.295Z,101410.72
2017-10-02T05:06:51.741Z,101408.20
2017-10-02T05:09:20.973Z,101409.50
2017-10-02T05:11:49.421Z,101412.02
2017-10-02T05:14:18.764Z,101407.20
2017-10-02T05:16:47.245Z,101397.29
2017-10-02T05:19:15.728Z,101397.27
2017-10-02T05:21:44.229Z,101392.54
2017-10-02T05:24:12.784Z,101385.65
2017-10-02T05:26:41.225Z,101381.37
2017-10-02T05:29:10.578Z,101374.78
2017-10-02T05:31:39.030Z,101363.05
2017-10-02T05:34:08.261Z,101362.63
2017-10-02T05:36:36.705Z,101369.44
2017-10-02T05:39:06.012Z,101365.08
2017-10-02T05:41:35.225Z,101361.11
2017-10-02T05:44:03.723Z,101359.80
2017-10-02T05:46:32.213Z,101363.25
2017-10-02T05:49:00.686Z,101360.58
2017-10-02T05:51:29.138Z,101358.79
2017-10-02T05:53:58.470Z,101357.93
2017-10-02T05:56:26.909Z,101351.53
2017-10-02T05:58:56.253Z,101352.26
2017-10-02T06:01:24.716Z,101350.02
2017-10-02T06:03:53.213Z,101336.69
2017-10-02T06:06:21.681Z,101332.83
2017-10-02T06:08:50.134Z,101332.30
2017-10-02T06:11:19.435Z,101328.34
2017-10-02T06:13:48.644Z,101329.63
2017-10-02T06:16:17.944Z,101326.09
2017-10-02T06:18:47.149Z,101321.66
2017-10-02T06:21:16.478Z,101312.72
2017-10-02T06:23:44.970Z,101310.06
2017-10-02T06:26:13.432Z,101304.37
2017-10-02T06:28:45.617Z,101295.13
2017-10-02T06:31:14.198Z,101293.41
2017-10-02T06:33:42.673Z,101284.34
2017-10-02T06:36:11.368Z,101282.02
2017-10-02T06:38:39.851Z,101275.45
2017-10-02T06:41:08.297Z,101266.76
2017-10-02T06:43:37.542Z,101268.89
2017-10-02T06:46:06.017Z,101258.88
2017-10-02T06:48:34.477Z,101250.23
2017-10-02T06:51:02.918Z,101249.79
2017-10-02T06:53:31.459Z,101237.97
2017-10-02T06:55:59.905Z,101229.75
2017-10-02T06:58:29.141Z,101231.73
2017-10-02T07:00:57.591Z,101221.39
2017-10-02T07:03:26.925Z,101222.30
2017-10-02T07:05:55.401Z,101205.89
2017-10-02T07:08:23.865Z,101199.23
2017-10-02T07:10:52.323Z,101209.94
2017-10-02T07:13:21.673Z,101205.00
2017-10-02T07:15:50.144Z,101197.55
2017-10-02T07:18:18.629Z,101194.38
2017-10-02T07:20:47.068Z,101191.64
2017-10-02T07:23:16.277Z,101188.38
2017-10-02T07:25:45.608Z,101177.08
2017-10-02T07:28:14.049Z,101157.96
2017-10-02T07:30:43.504Z,101159.55
2017-10-02T07:33:12.860Z,101150.39
2017-10-02T07:35:42.088Z,101144.78
2017-10-02T07:38:10.864Z,101139.23
2017-10-02T07:40:39.376Z,101131.77
2017-10-02T07:43:07.813Z,101128.38
2017-10-02T07:45:37.053Z,101106.61
2017-10-02T07:48:05.533Z,101109.75
2017-10-02T07:50:34.011Z,101092.02
2017-10-02T07:53:02.448Z,101093.23
2017-10-02T07:55:31.670Z,101081.42
2017-10-02T07:58:00.883Z,101076.40
2017-10-02T08:00:29.377Z,101076.94
2017-10-02T08:02:57.823Z,101079.42
2017-10-02T08:05:27.058Z,101071.92
2017-10-02T08:07:55.534Z,101065.55
2017-10-02T08:10:23.979Z,101066.42
2017-10-02T08:12:53.320Z,101055.58
2017-10-02T08:15:21.766Z,101057.47
2017-10-02T08:17:50.992Z,101066.20
2017-10-02T08:20:19.428Z,101069.75
2017-10-02T08:22:47.889Z,101066.61
2017-10-02T08:25:16.340Z,101062.20
2017-10-02T08:27:44.806Z,101060.58
2017-10-02T08:30:13.549Z,101055.13
2017-10-02T08:32:42.107Z,101051.56
2017-10-02T08:35:10.937Z,101050.70
2017-10-02T08:37:39.392Z,101053.55
2017-10-02T08:40:07.862Z,101046.67
2017-10-02T08:42:36.542Z,101052.19
2017-10-02T08:45:04.989Z,101052.94
2017-10-02T08:47:34.197Z,101046.76
2017-10-02T08:50:02.658Z,101047.09
2017-10-02T08:52:31.868Z,101044.83
2017-10-02T08:55:01.093Z,101045.15
2017-10-02T08:57:29.585Z,101035.42
2017-10-02T08:59:58.073Z,101027.56
2017-10-02T09:02:26.554Z,101029.11
2017-10-02T09:04:55.013Z,101022.33
2017-10-02T09:07:23.449Z,101019.66
2017-10-02T09:09:51.993Z,101018.64
2017-10-02T09:12:20.482Z,101018.70
2017-10-02T09:14:48.962Z,101014.22
2017-10-02T09:17:17.443Z,101015.73
2017-10-02T09:19:45.910Z,101016.27
2017-10-02T09:22:14.349Z,101019.45
2017-10-02T09:24:42.838Z,101022.70
2017-10-02T09:27:12.044Z,101025.41
2017-10-02T09:29:41.286Z,101023.25
2017-10-02T09:32:09.743Z,101022.03
2017-10-02T09:34:38.253Z,101022.77
2017-10-02T09:37:06.720Z,101016.18
2017-10-02T09:39:35.170Z,101023.92
2017-10-02T09:42:04.507Z,101024.57
2017-10-02T09:44:32.994Z,101029.45
2017-10-02T09:47:01.452Z,101030.92
2017-10-02T09:49:30.683Z,101025.71
2017-10-02T09:51:59.153Z,101038.91
2017-10-02T09:54:27.706Z,101038.91
2017-10-02T09:56:56.952Z,101037.62
2017-10-02T09:59:25.431Z,101031.77
2017-10-02T10:01:53.873Z,101037.42
2017-10-02T10:04:23.206Z,101030.47
2017-10-02T10:06:51.693Z,101036.25
2017-10-02T10:09:41.369Z,101033.77
2017-10-02T10:12:09.815Z,101025.75
2017-10-02T10:14:39.150Z,101027.10
2017-10-02T10:17:07.638Z,101028.12
2017-10-02T10:19:36.110Z,101027.09
2017-10-02T10:22:04.548Z,101022.22
2017-10-02T10:24:33.821Z,101023.31
2017-10-02T10:27:02.283Z,101021.37
2017-10-02T10:29:30.845Z,101020.17
2017-10-02T10:31:59.290Z,101020.11
2017-10-02T10:34:27.784Z,101022.82
2017-10-02T10:36:57.008Z,101022.77
2017-10-02T10:39:25.513Z,101015.21
2017-10-02T10:41:54.098Z,101012.16
2017-10-02T10:44:22.580Z,101023.13
2017-10-02T10:46:51.045Z,101011.52
2017-10-02T10:49:19.495Z,101006.18
2017-10-02T10:51:48.724Z,101002.81
2017-10-02T10:54:17.165Z,101003.13
2017-10-02T10:56:45.809Z,100996.86
2017-10-02T10:59:14.281Z,101005.19
2017-10-02T11:01:42.773Z,101005.62
2017-10-02T11:04:11.212Z,100998.53
2017-10-02T11:06:40.416Z,100996.93
2017-10-02T11:09:09.749Z,100993.47
2017-10-02T11:11:38.192Z,100995.65
2017-10-02T11:14:07.541Z,100996.31
2017-10-02T11:16:35.976Z,101000.61
2017-10-02T11:19:05.424Z,100993.27
2017-10-02T11:21:33.864Z,100995.03
2017-10-02T11:24:03.200Z,100987.47
2017-10-02T11:26:31.689Z,100974.28
2017-10-02T11:29:00.157Z,100966.58
2017-10-02T11:31:28.593Z,100958.27
2017-10-02T11:33:57.082Z,100955.37
2017-10-02T11:36:26.287Z,100965.63
2017-10-02T11:38:55.527Z,100957.50
2017-10-02T11:41:23.999Z,100951.81
2017-10-02T11:43:52.432Z,100949.47
2017-10-02T11:46:21.684Z,100951.03
2017-10-02T11:48:50.117Z,100951.40
2017-10-02T11:51:18.582Z,100949.60
2017-10-02T11:53:47.034Z,100948.62
2017-10-02T11:56:15.496Z,100948.55
2017-10-02T11:58:43.929Z,100949.34
2017-10-02T12:01:12.476Z,100942.78
2017-10-02T12:03:40.909Z,100949.09
2017-10-02T12:06:09.350Z,100937.23
2017-10-02T12:08:37.801Z,100926.75
2017-10-02T12:11:06.235Z,100935.26
2017-10-02T12:13:34.692Z,100937.97
2017-10-02T12:16:03.129Z,100938.91
2017-10-02T12:18:32.353Z,100940.18
2017-10-02T12:21:00.845Z,100940.58
2017-10-02T12:23:29.329Z,100944.63
2017-10-02T12:25:57.777Z,100934.58
2017-10-02T12:28:27.113Z,100934.89
2017-10-02T12:30:55.554Z,100932.72
2017-10-02T12:33:24.786Z,100944.15
2017-10-02T12:35:53.212Z,100951.23
2017-10-02T12:38:21.757Z,100961.84
2017-10-02T12:40:50.205Z,100946.89
2017-10-02T12:43:19.432Z,100942.82
2017-10-02T12:45:47.912Z,100940.05
2017-10-02T12:48:16.389Z,100948.37
2017-10-02T12:50:44.931Z,100938.52
2017-10-02T12:53:13.372Z,100937.40
2017-10-02T12:55:41.833Z,100942.70
2017-10-02T12:58:10.269Z,100944.03
2017-10-02T13:00:38.814Z,100933.88
2017-10-02T13:03:07.296Z,100932.46
2017-10-02T13:05:35.749Z,100929.49
2017-10-02T13:08:04.971Z,100923.89
2017-10-02T13:10:33.458Z,100924.77
2017-10-02T13:13:01.888Z,100924.74
2017-10-02T13:15:30.416Z,100928.68
2017-10-02T13:17:58.849Z,100928.80
2017-10-02T13:20:28.074Z,100925.77
2017-10-02T13:22:57.277Z,100914.80
2017-10-02T13:25:26.608Z,100903.12
2017-10-02T13:27:55.052Z,100895.30
2017-10-02T13:30:24.386Z,100898.09
2017-10-02T13:32:52.837Z,100897.91
2017-10-02T13:35:22.061Z,100899.73
2017-10-02T13:37:50.501Z,100904.30
2017-10-02T13:40:19.031Z,100911.95
2017-10-02T13:42:47.589Z,100909.20
2017-10-02T13:45:16.814Z,100904.67
2017-10-02T13:47:45.276Z,100903.39
2017-10-02T13:50:13.712Z,100900.30
2017-10-02T13:52:42.262Z,100902.27
2017-10-02T13:55:10.705Z,100911.75
2017-10-02T13:57:40.004Z,100914.39
2017-10-02T14:00:09.242Z,100917.02
2017-10-02T14:02:37.726Z,100914.19
2017-10-02T14:05:06.215Z,100912.96
2017-10-02T14:07:34.708Z,100902.84
2017-10-02T14:10:03.191Z,100899.66
2017-10-02T14:12:31.669Z,100900.67
2017-10-02T14:15:00.111Z,100897.16
2017-10-02T14:17:28.562Z,100899.91
2017-10-02T14:19:57.098Z,100883.33
2017-10-02T14:22:25.541Z,100889.85
2017-10-02T14:24:54.808Z,100902.06
2017-10-02T14:27:23.254Z,100901.03
2017-10-02T14:29:51.746Z,100894.53
2017-10-02T14:32:20.181Z,100888.83
2017-10-02T14:34:49.425Z,100884.95
2017-10-02T14:37:17.868Z,100876.29
2017-10-02T14:39:47.310Z,100869.22
2017-10-02T14:42:15.784Z,100862.05
2017-10-02T14:44:44.244Z,100865.77
2017-10-02T14:47:13.446Z,100855.03
2017-10-02T14:49:42.780Z,100864.85
2017-10-02T14:52:11.230Z,100862.55
2017-10-02T14:54:40.455Z,100862.56
2017-10-02T14:57:08.930Z,100865.91
2017-10-02T14:59:37.418Z,100873.59
2017-10-02T15:02:05.880Z,100876.58
2017-10-02T15:04:34.323Z,100883.05
2017-10-02T15:07:02.787Z,100886.62
2017-10-02T15:09:31.220Z,100893.22
2017-10-02T15:11:59.693Z,100850.56
2017-10-02T15:14:28.921Z,100864.16
2017-10-02T15:16:57.412Z,100875.42
2017-10-02T15:19:25.844Z,100879.69
2017-10-02T15:21:55.073Z,100879.11
2017-10-02T15:24:23.505Z,100870.44
2017-10-02T15:26:52.154Z,100863.06
2017-10-02T15:29:20.638Z,100867.86
2017-10-02T15:31:49.097Z,100866.02
2017-10-02T15:34:17.709Z,100864.63
2017-10-02T15:36:46.385Z,100871.95
2017-10-02T15:39:14.825Z,100881.33
2017-10-02T15:41:43.264Z,100880.45
2017-10-02T15:44:11.740Z,100869.38
2017-10-02T15:46:40.181Z,100861.73
2017-10-02T15:49:09.512Z,100840.70
2017-10-02T15:51:37.958Z,100824.68
2017-10-02T15:54:07.188Z,100838.63
2017-10-02T15:56:35.621Z,100844.39
2017-10-02T15:59:04.081Z,100836.03
2017-10-02T16:01:32.519Z,100851.06
2017-10-02T16:04:01.022Z,100851.04
2017-10-02T16:06:29.469Z,100850.16
2017-10-02T16:08:58.697Z,100849.69
2017-10-02T16:11:27.193Z,100853.66
2017-10-02T16:13:55.656Z,100839.81
2017-10-02T16:16:24.150Z,100849.71
2017-10-02T16:18:52.617Z,100847.56
2017-10-02T16:21:21.048Z,100855.47
2017-10-02T16:23:49.600Z,100852.48
2017-10-02T16:26:18.086Z,100855.61
2017-10-02T16:28:46.571Z,100833.05
2017-10-02T16:31:15.005Z,100825.70
2017-10-02T16:33:44.353Z,100841.31
2017-10-02T16:36:13.612Z,100835.55
2017-10-02T16:38:42.954Z,100836.99
2017-10-02T16:41:11.414Z,100854.66
2017-10-02T16:43:39.904Z,100833.42
2017-10-02T16:46:08.398Z,100824.64
2017-10-02T16:48:36.847Z,100826.69
2017-10-02T16:51:05.313Z,100825.66
2017-10-02T16:53:34.570Z,100826.53
2017-10-02T16:56:03.146Z,100827.36
2017-10-02T16:58:31.590Z,100852.77
2017-10-02T17:01:00.814Z,100867.64
2017-10-02T17:03:29.248Z,100850.73
2017-10-02T17:05:57.717Z,100849.73
2017-10-02T17:08:26.166Z,100859.58
2017-10-02T17:10:54.638Z,100851.34
2017-10-02T17:13:23.080Z,100834.36
2017-10-02T17:15:52.424Z,100830.56
2017-10-02T17:18:20.865Z,100831.31
2017-10-02T17:20:50.118Z,100831.67
2017-10-02T17:23:18.572Z,100835.59
2017-10-02T17:25:47.017Z,100843.71
2017-10-02T17:28:15.486Z,100844.75
2017-10-02T17:30:43.930Z,100835.38
2017-10-02T17:33:12.410Z,100820.55
2017-10-02T17:35:41.110Z,100828.00
2017-10-02T17:38:09.983Z,100824.13
2017-10-02T17:40:38.764Z,100832.80
2017-10-02T17:43:07.722Z,100826.30
2017-10-02T17:45:37.336Z,100819.23
2017-10-02T17:48:06.008Z,100816.18
2017-10-02T17:50:34.553Z,100805.25
2017-10-02T17:53:03.142Z,100813.88
2017-10-02T17:55:31.584Z,100828.17
2017-10-02T17:58:00.816Z,100843.69
2017-10-02T18:00:29.256Z,100836.72
2017-10-02T18:02:57.713Z,100834.97
2017-10-02T18:05:26.152Z,100825.02
2017-10-02T18:07:54.617Z,100817.98
2017-10-02T18:10:23.852Z,100799.39
2017-10-02T18:12:52.436Z,100829.71
2017-10-02T18:15:21.696Z,100838.02
2017-10-02T18:17:50.909Z,100852.46
2017-10-02T18:20:19.420Z,100852.21
2017-10-02T18:22:47.866Z,100863.93
2017-10-02T18:25:17.221Z,100861.88
2017-10-02T18:27:45.661Z,100845.56
2017-10-02T18:30:14.131Z,100855.14
2017-10-02T18:32:43.333Z,100840.91
2017-10-02T18:35:12.569Z,100828.32
2017-10-02T18:37:41.014Z,100829.20
2017-10-02T18:40:09.477Z,100827.13
2017-10-02T18:42:38.680Z,100827.58
2017-10-02T18:45:07.902Z,100835.29
2017-10-02T18:47:36.350Z,100835.38
2017-10-02T18:50:04.883Z,100824.27
2017-10-02T18:52:34.941Z,100817.33
2017-10-02T18:55:03.388Z,100814.38
2017-10-02T18:57:31.849Z,100810.98
2017-10-02T19:00:00.347Z,100811.91
2017-10-02T19:02:28.810Z,100811.88
2017-10-02T19:04:57.261Z,100823.40
2017-10-02T19:07:25.788Z,100806.25
2017-10-02T19:09:54.225Z,100798.86
2017-10-02T19:12:22.690Z,100807.55
2017-10-02T19:14:51.132Z,100806.58
2017-10-02T19:17:19.593Z,100814.02
2017-10-02T19:19:48.110Z,100816.97
2017-10-02T19:22:16.680Z,100821.55
2017-10-02T19:24:45.172Z,100830.47
2017-10-02T19:27:13.640Z,100826.32
2017-10-02T19:29:42.101Z,100808.66
2017-10-02T19:32:11.438Z,100825.02
2017-10-02T19:34:39.880Z,100821.95
2017-10-02T19:37:09.090Z,100806.46
2017-10-02T19:39:37.574Z,100787.29
2017-10-02T19:42:06.055Z,100780.50
2017-10-02T19:44:34.559Z,100785.69
2017-10-02T19:47:03.011Z,100779.54
2017-10-02T19:49:32.250Z,100770.84
2017-10-02T19:52:00.688Z,100771.38
2017-10-02T19:54:29.913Z,100777.74
2017-10-02T19:56:58.356Z,100775.59
2017-10-02T19:59:27.588Z,100782.20
2017-10-02T20:01:56.028Z,100787.44
2017-10-02T20:04:24.490Z,100769.97
2017-10-02T20:06:52.930Z,100759.33
2017-10-02T20:09:21.417Z,100763.17
2017-10-02T20:11:49.914Z,100761.03
2017-10-02T20:14:18.357Z,100766.17
2017-10-02T20:16:47.584Z,100773.92
2017-10-02T20:19:16.072Z,100763.88
2017-10-02T20:21:44.537Z,100764.00
2017-10-02T20:24:12.982Z,100760.62
2017-10-02T20:26:41.472Z,100768.87
2017-10-02T20:29:10.686Z,100769.75
2017-10-02T20:31:40.018Z,100762.31
2017-10-02T20:34:08.466Z,100756.23
2017-10-02T20:36:37.705Z,100764.03
2017-10-02T20:39:06.145Z,100761.83
2017-10-02T20:41:35.373Z,100761.41
2017-10-02T20:44:03.862Z,100750.53
2017-10-02T20:46:32.323Z,100745.44
2017-10-02T20:49:00.826Z,100742.73
2017-10-02T20:51:29.313Z,100743.45
2017-10-02T20:53:57.795Z,100746.02
2017-10-02T20:56:26.236Z,100756.13
2017-10-02T20:58:55.470Z,100755.23
2017-10-02T21:01:23.953Z,100756.45
2017-10-02T21:03:52.543Z,100747.27
2017-10-02T21:06:21.017Z,100734.35
2017-10-02T21:08:49.484Z,100732.16
2017-10-02T21:11:17.945Z,100732.60
2017-10-02T21:13:46.421Z,100737.70
2017-10-02T21:16:15.629Z,100753.69
2017-10-02T21:18:44.856Z,100754.11
2017-10-02T21:21:13.350Z,100747.64
2017-10-02T21:23:41.929Z,100740.72
2017-10-02T21:26:10.411Z,100738.12
2017-10-02T21:28:38.897Z,100738.57
2017-10-02T21:31:07.372Z,100752.12
2017-10-02T21:33:35.858Z,100743.53
2017-10-02T21:36:04.341Z,100750.19
2017-10-02T21:38:32.790Z,100742.81
2017-10-02T21:41:02.025Z,100741.94
2017-10-02T21:43:30.474Z,100740.84
2017-10-02T21:45:59.700Z,100729.65
2017-10-02T21:48:28.182Z,100722.36
2017-10-02T21:50:56.648Z,100711.11
2017-10-02T21:53:25.146Z,100700.85
2017-10-02T21:55:53.617Z,100707.38
2017-10-02T21:58:22.067Z,100705.30
2017-10-02T22:00:51.302Z,100697.06
2017-10-02T22:03:19.791Z,100695.28
2017-10-02T22:05:48.253Z,100701.03
2017-10-02T22:08:16.758Z,100713.23
2017-10-02T22:10:45.225Z,100709.80
2017-10-02T22:13:13.660Z,100712.43
2017-10-02T22:15:42.125Z,100703.02
2017-10-02T22:18:10.565Z,100698.77
2017-10-02T22:20:39.070Z,100703.72
2017-10-02T22:23:07.643Z,100717.27
2017-10-02T22:25:36.091Z,100710.03
2017-10-02T22:28:05.432Z,100713.00
2017-10-02T22:30:33.914Z,100712.25
2017-10-02T22:33:02.402Z,100707.66
2017-10-02T22:35:30.844Z,100718.92
2017-10-02T22:38:00.178Z,100708.98
2017-10-02T22:40:28.626Z,100694.33
2017-10-02T22:42:57.961Z,100698.62
2017-10-02T22:45:26.427Z,100716.45
2017-10-02T22:47:54.913Z,100725.09
2017-10-02T22:50:23.442Z,100716.53
2017-10-02T22:52:51.909Z,100707.06
2017-10-02T22:55:20.345Z,100690.20
2017-10-02T22:57:49.576Z,100689.44
2017-10-02T23:00:18.060Z,100692.02
2017-10-02T23:02:47.269Z,100701.25
2017-10-02T23:05:15.901Z,100707.39
2017-10-02T23:07:45.118Z,100714.31
2017-10-02T23:10:13.580Z,100700.95
2017-10-02T23:12:42.784Z,100690.16
2017-10-02T23:15:12.025Z,100691.06
2017-10-02T23:17:40.499Z,100685.39
2017-10-02T23:20:08.965Z,100694.48
2017-10-02T23:22:37.408Z,100691.97
2017-10-02T23:25:05.873Z,100692.86
2017-10-02T23:27:34.313Z,100695.16
2017-10-02T23:30:02.777Z,100690.05
2017-10-02T23:32:31.985Z,100682.41
2017-10-02T23:35:00.448Z,100691.14
2017-10-02T23:37:29.661Z,100691.96
2017-10-02T23:39:58.150Z,100685.33
2017-10-02T23:42:26.593Z,100697.52
2017-10-02T23:44:55.136Z,100695.88
2017-10-02T23:47:23.605Z,100690.41
2017-10-02T23:49:52.092Z,100683.92
2017-10-02T23:52:20.582Z,100688.79
2017-10-02T23:54:49.025Z,100691.41
2017-10-02T23:57:18.361Z,100699.67
2017-10-02T23:59:46.803Z,100708.27
